Time;durP1;ratioP1;P1;durP2;ratioP2;P2;SDS_P1;SDS_P2;PMS_P1;PMS_P2;Temp;Humidity;BMP_temperature;BMP_pressure;BME280_temperature;BME280_humidity;BME280_pressure;Samples;Min_cycle;Max_cycle;Signal;HPM_P1;HPM_P2
2021/12/04 00:02:02;;;;;;;1.75;1.20;;;5.00;99.90;;;;;;4905657;29;20231;-83
2021/12/04 00:04:32;;;;;;;1.48;1.38;;;5.10;99.90;;;;;;4904482;29;20258;-83
2021/12/04 00:07:01;;;;;;;1.40;1.20;;;5.00;99.90;;;;;;4907097;29;20566;-83
2021/12/04 00:09:31;;;;;;;1.55;1.40;;;5.00;99.90;;;;;;4889838;29;20705;-81
2021/12/04 00:12:01;;;;;;;1.83;1.25;;;5.50;99.90;;;;;;4904836;29;20228;-83
2021/12/04 00:14:30;;;;;;;1.67;1.50;;;5.10;99.90;;;;;;4906257;29;20269;-83
2021/12/04 00:16:59;;;;;;;1.13;1.02;;;5.30;99.90;;;;;;4907128;29;20206;-84
2021/12/04 00:19:28;;;;;;;3.35;1.52;;;5.30;99.90;;;;;;4904495;29;20226;-81
2021/12/04 00:21:57;;;;;;;1.60;1.10;;;5.20;99.90;;;;;;4907608;29;20233;-83
2021/12/04 00:24:26;;;;;;;3.45;1.40;;;4.90;99.90;;;;;;4904377;29;20225;-82
2021/12/04 00:26:56;;;;;;;2.15;1.15;;;5.00;99.90;;;;;;4907470;29;20216;-83
2021/12/04 00:29:25;;;;;;;1.50;1.40;;;5.20;99.90;;;;;;4906949;29;20234;-83
2021/12/04 00:31:57;;;;;;;1.40;1.20;;;5.30;99.90;;;;;;4900641;29;20226;-83
2021/12/04 00:34:26;;;;;;;2.58;1.40;;;5.20;99.90;;;;;;4904969;29;20249;-85
2021/12/04 00:37:07;;;;;;;1.70;1.10;;;5.10;99.90;;;;;;4897485;29;20497;-81
2021/12/04 00:50:39;;;;;;;2.17;1.55;;;5.30;99.90;;;;;;4905446;29;20229;-84
2021/12/04 00:53:08;;;;;;;2.60;1.63;;;5.20;99.90;;;;;;4906666;29;20229;-82
2021/12/04 00:55:36;;;;;;;5.13;1.83;;;5.10;99.90;;;;;;4905162;29;20680;-84
2021/12/04 00:58:05;;;;;;;1.15;1.05;;;5.20;99.90;;;;;;4905850;29;20209;-84
2021/12/04 01:00:33;;;;;;;2.78;1.15;;;5.20;99.90;;;;;;4906038;29;20241;-82
2021/12/04 01:03:02;;;;;;;1.43;1.20;;;5.40;99.90;;;;;;4906451;29;20204;-81
2021/12/04 01:05:30;;;;;;;1.60;1.23;;;5.10;99.90;;;;;;4904452;29;20457;-82
2021/12/04 01:07:59;;;;;;;2.67;1.10;;;5.00;99.90;;;;;;4906764;29;20764;-80
2021/12/04 01:10:27;;;;;;;1.13;0.85;;;4.90;99.90;;;;;;4905025;29;20285;-81
2021/12/04 01:13:00;;;;;;;0.88;0.88;;;4.80;1.00;;;;;;4897378;29;20198;-80
2021/12/04 01:15:29;;;;;;;0.70;0.70;;;4.90;1.00;;;;;;4904105;29;20217;-83
2021/12/04 01:17:57;;;;;;;1.58;1.10;;;4.90;1.00;;;;;;4905651;29;20618;-79
2021/12/04 01:20:26;;;;;;;1.52;1.33;;;4.70;1.00;;;;;;4905324;29;20629;-82
2021/12/04 01:22:54;;;;;;;1.50;1.38;;;4.50;92.00;;;;;;4905168;29;20685;-84
2021/12/04 01:25:22;;;;;;;1.67;1.38;;;4.50;99.90;;;;;;4904884;29;20210;-82
2021/12/04 01:27:50;;;;;;;2.47;2.15;;;4.50;99.90;;;;;;4908180;29;20209;-82
2021/12/04 01:30:19;;;;;;;3.80;1.50;;;4.70;99.90;;;;;;4905373;29;20926;-81
2021/12/04 01:32:48;;;;;;;1.23;1.05;;;4.80;99.90;;;;;;4906807;29;20230;-83
2021/12/04 01:35:16;;;;;;;3.45;2.05;;;4.90;99.90;;;;;;4904402;29;20213;-82
2021/12/04 01:37:45;;;;;;;1.88;1.50;;;5.00;48.00;;;;;;4906266;29;20226;-82
2021/12/04 01:40:13;;;;;;;1.85;1.52;;;5.10;99.90;;;;;;4899876;29;20266;-82
2021/12/04 01:42:42;;;;;;;1.40;1.20;;;5.00;99.90;;;;;;4905749;29;20213;-81
2021/12/04 01:45:11;;;;;;;3.28;1.90;;;4.80;1.00;;;;;;4903460;29;20213;-82
2021/12/04 01:47:39;;;;;;;1.52;1.42;;;4.90;1.00;;;;;;4905428;29;20216;-83
2021/12/04 01:50:10;;;;;;;8.45;1.65;;;5.10;99.90;;;;;;4904779;29;20313;-82
2021/12/04 01:52:39;;;;;;;1.20;1.10;;;5.20;99.90;;;;;;4906755;29;20637;-84
2021/12/04 01:55:09;;;;;;;1.33;1.20;;;5.20;99.90;;;;;;4903832;29;20821;-81
2021/12/04 01:57:38;;;;;;;2.63;1.70;;;5.10;99.90;;;;;;4905703;29;20210;-83
2021/12/04 02:00:08;;;;;;;2.65;1.33;;;4.90;1.00;;;;;;4905471;29;20222;-82
2021/12/04 02:02:38;;;;;;;1.88;1.45;;;4.80;1.00;;;;;;4905239;29;20587;-83
2021/12/04 02:05:09;;;;;;;2.00;1.40;;;4.70;99.90;;;;;;4904699;29;20337;-85
2021/12/04 02:07:38;;;;;;;1.73;1.52;;;4.90;99.90;;;;;;4903822;29;20720;-86
2021/12/04 02:10:08;;;;;;;2.13;1.30;;;5.00;1.00;;;;;;4897891;29;20237;-82
2021/12/04 02:12:36;;;;;;;1.75;1.65;;;5.10;1.00;;;;;;4906873;29;20223;-85
2021/12/04 02:15:05;;;;;;;1.77;1.50;;;5.10;1.00;;;;;;4905538;29;20206;-81
2021/12/04 02:17:33;;;;;;;2.78;1.38;;;5.30;99.90;;;;;;4904473;29;20213;-82
2021/12/04 02:20:02;;;;;;;2.58;1.35;;;5.20;99.90;;;;;;4905041;29;20265;-82
2021/12/04 02:22:31;;;;;;;1.85;1.13;;;5.10;1.00;;;;;;4905474;29;20198;-84
2021/12/04 02:24:59;;;;;;;1.20;1.20;;;5.30;99.90;;;;;;4904724;29;20217;-83
2021/12/04 02:27:27;;;;;;;1.88;1.25;;;5.50;99.90;;;;;;4904018;29;20210;-82
2021/12/04 02:29:56;;;;;;;1.27;1.10;;;5.50;99.90;;;;;;4904838;29;20229;-82
2021/12/04 02:32:24;;;;;;;1.20;1.10;;;5.20;1.00;;;;;;4905699;29;20490;-83
2021/12/04 02:34:52;;;;;;;1.92;1.35;;;5.20;1.00;;;;;;4904159;29;20210;-85
2021/12/04 02:37:20;;;;;;;1.85;1.60;;;5.10;1.00;;;;;;4905287;29;20210;-85
2021/12/04 02:39:57;;;;;;;2.85;1.05;;;5.10;59.00;;;;;;4905212;29;20599;-82
2021/12/04 02:42:30;;;;;;;1.55;1.05;;;5.10;99.90;;;;;;4907220;29;20218;-82
2021/12/04 02:44:59;;;;;;;1.15;1.05;;;5.10;99.90;;;;;;4899874;29;20216;-82
2021/12/04 02:47:28;;;;;;;1.10;1.00;;;4.90;1.00;;;;;;4901773;29;20218;-85
2021/12/04 02:49:57;;;;;;;0.82;0.80;;;5.10;99.90;;;;;;4901578;29;20234;-82
2021/12/04 02:52:26;;;;;;;7.28;1.20;;;5.00;99.90;;;;;;4905870;29;20226;-82
2021/12/04 02:54:56;;;;;;;1.00;0.90;;;4.80;2.00;;;;;;4904632;29;20272;-82
2021/12/04 02:57:25;;;;;;;0.90;0.80;;;4.80;43.30;;;;;;4903797;29;20214;-81
2021/12/04 02:59:54;;;;;;;1.20;1.10;;;5.00;1.00;;;;;;4905621;29;20706;-81
2021/12/04 03:02:23;;;;;;;1.30;1.20;;;4.80;50.00;;;;;;4900926;29;20202;-82
2021/12/04 03:04:54;;;;;;;1.20;0.90;;;5.10;99.90;;;;;;4903684;29;20208;-81
2021/12/04 03:07:23;;;;;;;1.23;1.05;;;5.20;99.90;;;;;;4904164;29;20207;-83
2021/12/04 03:09:53;;;;;;;2.97;1.23;;;5.20;99.90;;;;;;4906956;29;20252;-85
2021/12/04 03:12:23;;;;;;;1.38;0.80;;;5.20;1.00;;;;;;4905768;29;20221;-85
2021/12/04 03:14:53;;;;;;;2.28;1.05;;;5.20;99.90;;;;;;4905907;29;20234;-82
2021/12/04 03:17:23;;;;;;;0.90;0.80;;;5.20;1.00;;;;;;4901731;29;20220;-85
2021/12/04 03:19:52;;;;;;;1.13;0.90;;;5.40;99.90;;;;;;4902914;29;20512;-84
2021/12/04 03:22:22;;;;;;;4.22;1.00;;;5.20;99.90;;;;;;4903671;29;20462;-83
2021/12/04 03:24:51;;;;;;;0.90;0.90;;;4.80;99.90;;;;;;4904542;29;20580;-81
2021/12/04 03:27:20;;;;;;;0.90;0.80;;;4.70;99.90;;;;;;4903176;29;20207;-81
2021/12/04 03:29:55;;;;;;;0.65;0.65;;;4.80;99.90;;;;;;4902203;29;20999;-82
2021/12/04 03:35:22;;;;;;;0.85;0.82;;;4.90;1.00;;;;;;4876278;29;20221;-82
2021/12/04 03:40:50;;;;;;;3.13;0.90;;;4.90;99.90;;;;;;4906001;29;20233;-81
2021/12/04 03:43:19;;;;;;;1.58;0.77;;;5.00;99.90;;;;;;4907271;29;20687;-81
2021/12/04 03:45:54;;;;;;;0.60;0.60;;;5.10;1.00;;;;;;4907739;29;20217;-83
2021/12/04 03:51:11;;;;;;;0.60;0.60;;;5.00;42.30;;;;;;4900512;29;20214;-82
2021/12/04 03:53:39;;;;;;;1.25;0.80;;;5.10;1.00;;;;;;4910396;29;20269;-81
2021/12/04 03:56:10;;;;;;;0.93;0.70;;;5.20;99.90;;;;;;4909621;29;20290;-79
2021/12/04 03:58:39;;;;;;;0.60;0.60;;;5.20;99.90;;;;;;4907817;29;20214;-82
2021/12/04 04:01:09;;;;;;;0.50;0.50;;;5.40;1.00;;;;;;4905491;29;20225;-81
2021/12/04 04:03:37;;;;;;;0.80;0.80;;;5.40;1.00;;;;;;4894474;29;20274;-84
2021/12/04 04:06:06;;;;;;;0.60;0.60;;;5.60;60.00;;;;;;4906510;29;20777;-83
2021/12/04 04:08:34;;;;;;;0.50;0.50;;;5.70;99.90;;;;;;4903261;29;20238;-80
2021/12/04 04:11:02;;;;;;;0.60;0.60;;;5.70;99.90;;;;;;4907808;29;20237;-81
2021/12/04 04:13:30;;;;;;;0.40;0.40;;;5.70;99.90;;;;;;4899655;29;20777;-84
2021/12/04 04:16:00;;;;;;;0.68;0.68;;;5.40;99.90;;;;;;4906606;29;20308;-82
2021/12/04 04:18:31;;;;;;;0.60;0.60;;;5.60;99.90;;;;;;4908106;29;20240;-81
2021/12/04 04:21:00;;;;;;;0.70;0.70;;;5.60;99.90;;;;;;4907213;29;20225;-83
2021/12/04 04:23:28;;;;;;;0.50;0.50;;;5.60;1.00;;;;;;4908060;29;20216;-83
2021/12/04 04:25:56;;;;;;;0.80;0.80;;;5.50;99.90;;;;;;4907045;29;20220;-82
2021/12/04 04:28:25;;;;;;;0.50;0.50;;;5.50;99.90;;;;;;4908839;29;20214;-84
2021/12/04 04:30:54;;;;;;;1.38;0.63;;;5.30;1.00;;;;;;4899694;29;20236;-83
2021/12/04 04:33:23;;;;;;;0.50;0.50;;;5.50;43.50;;;;;;4907691;29;20260;-82
2021/12/04 04:36:06;;;;;;;0.50;0.50;;;5.60;1.00;;;;;;4906760;29;20235;-84
2021/12/04 04:38:43;;;;;;;0.50;0.50;;;5.60;1.00;;;;;;4898598;29;20300;-85
2021/12/04 04:58:04;;;;;;;0.40;0.40;;;6.00;1.00;;;;;;4905750;29;20216;-82
2021/12/04 05:00:50;;;;;;;0.47;0.47;;;5.50;99.90;;;;;;4902939;29;20697;-82
2021/12/04 05:11:36;;;;;;;0.50;0.50;;;5.10;45.80;;;;;;4906120;29;20582;-82
2021/12/04 05:14:05;;;;;;;0.45;0.43;;;5.50;99.90;;;;;;4906727;29;20226;-86
2021/12/04 05:16:49;;;;;;;0.38;0.38;;;5.30;1.00;;;;;;4903971;29;20209;-84
2021/12/04 05:19:28;;;;;;;0.40;0.40;;;5.50;99.90;;;;;;4892140;29;20232;-83
2021/12/04 05:21:57;;;;;;;0.40;0.40;;;5.50;1.00;;;;;;4907047;29;20208;-84
2021/12/04 05:24:26;;;;;;;0.50;0.50;;;5.70;1.00;;;;;;4907158;29;20206;-85
2021/12/04 05:26:55;;;;;;;0.50;0.50;;;5.90;99.90;;;;;;4902409;29;20217;-83
2021/12/04 05:29:23;;;;;;;0.40;0.40;;;5.60;99.90;;;;;;4906937;29;20773;-83
2021/12/04 05:31:52;;;;;;;0.40;0.40;;;5.70;31.70;;;;;;4901594;29;20560;-83
2021/12/04 05:34:20;;;;;;;0.40;0.40;;;5.90;99.90;;;;;;4899892;29;20250;-83
2021/12/04 05:36:48;;;;;;;0.80;0.40;;;5.70;37.50;;;;;;4906583;29;20229;-81
2021/12/04 05:39:17;;;;;;;1.00;0.40;;;5.50;99.90;;;;;;4905230;29;20271;-84
2021/12/04 05:41:47;;;;;;;0.40;0.40;;;5.50;93.90;;;;;;4898162;29;20305;-82
2021/12/04 05:44:18;;;;;;;0.50;0.50;;;5.70;99.90;;;;;;4903319;29;20288;-84
2021/12/04 05:46:53;;;;;;;0.40;0.40;;;5.40;1.00;;;;;;4904967;29;20201;-83
2021/12/04 05:49:25;;;;;;;0.40;0.40;;;5.50;99.90;;;;;;4904891;29;20235;-85
2021/12/04 05:52:11;;;;;;;0.40;0.40;;;5.50;99.90;;;;;;4902910;29;20473;-85
2021/12/04 05:55:07;;;;;;;0.47;0.47;;;5.50;99.90;;;;;;4904802;29;20453;-83
2021/12/04 05:57:37;;;;;;;0.40;0.40;;;5.70;1.00;;;;;;4903848;29;20480;-84
2021/12/04 06:00:07;;;;;;;0.40;0.40;;;5.20;99.90;;;;;;4905996;29;20571;-81
2021/12/04 06:02:35;;;;;;;0.50;0.50;;;5.30;99.90;;;;;;4906668;29;20217;-82
2021/12/04 06:05:04;;;;;;;0.73;0.50;;;5.40;99.90;;;;;;4900408;29;20240;-81
2021/12/04 06:07:32;;;;;;;0.60;0.50;;;5.50;99.90;;;;;;4891490;29;20220;-86
2021/12/04 06:10:00;;;;;;;0.38;0.38;;;5.60;1.00;;;;;;4904295;29;20233;-83
2021/12/04 06:12:29;;;;;;;0.60;0.60;;;5.60;1.00;;;;;;4897931;29;20216;-83
2021/12/04 06:14:58;;;;;;;0.52;0.52;;;6.00;1.00;;;;;;4905053;29;20607;-85
2021/12/04 06:17:28;;;;;;;0.40;0.40;;;5.80;99.90;;;;;;4905327;29;20236;-83
2021/12/04 06:22:43;;;;;;;0.40;0.40;;;5.80;1.00;;;;;;4904522;29;20462;-82
2021/12/04 06:25:13;;;;;;;0.40;0.40;;;5.70;1.00;;;;;;4905933;29;20202;-84
2021/12/04 06:27:43;;;;;;;0.40;0.40;;;5.90;99.90;;;;;;4900612;29;20461;-82
2021/12/04 06:30:17;;;;;;;0.40;0.40;;;5.80;1.00;;;;;;4903901;29;20257;-83
2021/12/04 06:32:47;;;;;;;0.40;0.40;;;5.90;1.00;;;;;;4891284;29;20473;-82
2021/12/04 06:35:17;;;;;;;0.40;0.40;;;5.80;1.00;;;;;;4900222;29;20281;-83
2021/12/04 06:37:48;;;;;;;0.40;0.40;;;6.10;99.90;;;;;;4904882;29;20470;-83
2021/12/04 06:40:18;;;;;;;0.40;0.40;;;6.20;65.80;;;;;;4903319;29;20238;-83
2021/12/04 06:42:46;;;;;;;0.95;0.50;;;5.90;19.90;;;;;;4901068;29;21005;-84
2021/12/04 06:45:16;;;;;;;0.40;0.40;;;6.00;1.00;;;;;;4903580;29;20205;-80
2021/12/04 06:47:50;;;;;;;0.40;0.40;;;6.20;99.90;;;;;;4905061;29;20466;-82
2021/12/04 06:50:25;;;;;;;0.40;0.40;;;6.20;99.90;;;;;;4898537;29;20276;-83
2021/12/04 06:52:54;;;;;;;0.50;0.50;;;6.30;99.90;;;;;;4904540;29;20827;-80
2021/12/04 06:55:27;;;;;;;0.40;0.40;;;6.40;99.90;;;;;;4905318;29;20799;-84
2021/12/04 06:57:56;;;;;;;0.30;0.30;;;6.40;99.90;;;;;;4891095;29;20462;-82
2021/12/04 07:00:26;;;;;;;0.30;0.30;;;6.30;99.90;;;;;;4885955;29;20230;-84
2021/12/04 07:02:54;;;;;;;0.63;0.43;;;6.30;99.90;;;;;;4903855;29;20429;-84
2021/12/04 07:05:23;;;;;;;0.40;0.40;;;6.40;99.90;;;;;;4903704;29;20454;-83
2021/12/04 07:07:51;;;;;;;0.30;0.30;;;6.60;99.90;;;;;;4901459;29;20201;-83
2021/12/04 07:10:19;;;;;;;0.40;0.40;;;6.50;1.00;;;;;;4908418;29;20602;-83
2021/12/04 07:12:48;;;;;;;0.80;0.30;;;6.50;99.90;;;;;;4908919;29;20758;-81
2021/12/04 07:15:16;;;;;;;1.07;0.60;;;6.40;99.90;;;;;;4908921;29;20489;-87
2021/12/04 07:17:46;;;;;;;0.40;0.40;;;6.60;99.90;;;;;;4908141;29;20497;-85
2021/12/04 07:20:14;;;;;;;0.40;0.40;;;6.40;1.00;;;;;;4901188;29;20230;-83
2021/12/04 07:22:42;;;;;;;0.30;0.30;;;6.30;1.00;;;;;;4901537;29;20466;-82
2021/12/04 07:25:11;;;;;;;0.63;0.40;;;6.40;1.00;;;;;;4909232;29;20457;-82
2021/12/04 07:27:40;;;;;;;0.57;0.43;;;6.50;1.00;;;;;;4905335;29;20226;-83
2021/12/04 07:30:10;;;;;;;0.50;0.50;;;6.90;99.90;;;;;;4905735;29;20491;-84
2021/12/04 07:32:38;;;;;;;3.17;0.77;;;6.40;1.00;;;;;;4907648;29;21111;-83
2021/12/04 07:35:10;;;;;;;0.80;0.40;;;6.40;1.00;;;;;;4902383;29;20485;-82
2021/12/04 07:37:38;;;;;;;0.88;0.88;;;6.40;1.00;;;;;;4908215;29;20970;-82
2021/12/04 07:40:07;;;;;;;0.40;0.40;;;6.10;99.90;;;;;;4905199;29;20607;-82
2021/12/04 07:42:36;;;;;;;0.40;0.40;;;6.20;99.90;;;;;;4895510;29;20475;-82
2021/12/04 07:45:06;;;;;;;0.40;0.40;;;6.20;99.90;;;;;;4909050;29;20453;-82
2021/12/04 07:47:34;;;;;;;0.40;0.40;;;6.30;99.90;;;;;;4908435;29;20461;-83
2021/12/04 07:50:04;;;;;;;0.80;0.43;;;6.40;99.90;;;;;;4908284;29;20504;-82
2021/12/04 07:52:34;;;;;;;0.43;0.40;;;6.50;99.90;;;;;;4907648;29;20462;-82
2021/12/04 07:55:02;;;;;;;0.30;0.30;;;6.60;99.90;;;;;;4898873;29;20489;-82
2021/12/04 07:57:30;;;;;;;0.45;0.45;;;7.00;99.90;;;;;;4896814;29;20874;-82
2021/12/04 07:59:58;;;;;;;0.50;0.50;;;6.50;99.90;;;;;;4908567;29;20226;-81
2021/12/04 08:02:27;;;;;;;0.40;0.40;;;6.60;99.90;;;;;;4911348;29;20468;-80
2021/12/04 08:04:55;;;;;;;0.70;0.50;;;6.50;99.90;;;;;;4909405;29;20458;-81
2021/12/04 08:07:23;;;;;;;0.53;0.53;;;6.60;99.90;;;;;;4925177;29;20450;-81
2021/12/04 08:09:53;;;;;;;0.50;0.50;;;6.80;99.90;;;;;;4911778;29;20501;-84
2021/12/04 08:12:21;;;;;;;0.60;0.60;;;6.60;99.90;;;;;;4907832;29;20536;-81
2021/12/04 08:14:51;;;;;;;2.10;0.60;;;6.70;99.90;;;;;;4906466;29;20500;-84
2021/12/04 08:17:19;;;;;;;0.53;0.50;;;6.70;99.90;;;;;;4904993;29;20477;-82
2021/12/04 08:19:47;;;;;;;1.10;0.40;;;7.00;99.90;;;;;;4906183;29;20998;-80
2021/12/04 08:22:16;;;;;;;1.00;0.60;;;6.90;99.90;;;;;;4905237;29;20469;-83
2021/12/04 08:24:47;;;;;;;0.70;0.57;;;7.00;99.90;;;;;;4901559;29;20457;-82
2021/12/04 08:27:18;;;;;;;1.07;0.50;;;7.20;1.00;;;;;;4906604;29;20474;-81
2021/12/04 08:29:46;;;;;;;0.63;0.40;;;7.10;1.00;;;;;;4908885;29;20485;-80
2021/12/04 08:32:14;;;;;;;0.40;0.40;;;7.00;67.10;;;;;;4903488;29;20858;-81
2021/12/04 08:34:43;;;;;;;0.60;0.60;;;7.00;99.90;;;;;;4904556;29;20652;-82
2021/12/04 08:37:11;;;;;;;0.50;0.50;;;7.20;1.00;;;;;;4906730;29;20466;-81
2021/12/04 08:39:39;;;;;;;0.50;0.50;;;7.30;1.00;;;;;;4907237;29;20499;-80
2021/12/04 08:42:08;;;;;;;0.50;0.50;;;7.40;99.90;;;;;;4903206;29;20476;-81
2021/12/04 08:44:37;;;;;;;0.50;0.47;;;7.30;1.00;;;;;;4900798;29;20455;-85
2021/12/04 08:47:06;;;;;;;1.20;0.50;;;7.30;1.00;;;;;;4905648;29;20839;-82
2021/12/04 08:49:34;;;;;;;0.40;0.40;;;7.20;99.90;;;;;;4907699;29;20477;-82
2021/12/04 08:52:04;;;;;;;0.40;0.40;;;6.90;99.90;;;;;;4907462;29;20469;-80
2021/12/04 08:54:33;;;;;;;0.40;0.40;;;6.90;99.90;;;;;;4906905;29;21013;-81
2021/12/04 08:57:01;;;;;;;2.03;0.50;;;6.90;1.00;;;;;;4904897;29;20469;-85
2021/12/04 08:59:32;;;;;;;0.50;0.50;;;6.90;1.00;;;;;;4891353;29;20492;-82
2021/12/04 09:02:03;;;;;;;0.47;0.47;;;7.10;99.90;;;;;;4905941;29;20537;-84
2021/12/04 09:04:35;;;;;;;0.50;0.50;;;7.20;99.90;;;;;;4906504;29;20501;-82
2021/12/04 09:07:04;;;;;;;0.60;0.60;;;7.00;99.90;;;;;;4903638;29;20446;-80
2021/12/04 09:09:34;;;;;;;1.00;0.50;;;7.00;1.00;;;;;;4910239;29;20481;-86
2021/12/04 09:12:24;;;;;;;0.60;0.50;;;7.30;1.00;;;;;;4899356;29;20478;-82
2021/12/04 09:14:53;;;;;;;0.50;0.50;;;7.20;99.90;;;;;;4906336;29;20463;-81
2021/12/04 09:17:23;;;;;;;0.50;0.50;;;7.10;1.00;;;;;;4906676;29;20469;-82
2021/12/04 09:19:52;;;;;;;0.77;0.53;;;7.20;1.00;;;;;;4900525;29;20752;-83
2021/12/04 09:22:27;;;;;;;0.30;0.30;;;7.40;1.00;;;;;;4905325;29;20551;-83
2021/12/04 09:25:03;;;;;;;0.47;0.40;;;7.40;99.90;;;;;;4903290;29;20498;-80
2021/12/04 09:27:57;;;;;;;0.40;0.40;;;7.30;99.90;;;;;;4900298;29;20454;-81
2021/12/04 09:31:04;;;;;;;0.93;0.60;;;7.30;1.00;;;;;;4905589;29;20474;-81
2021/12/04 09:33:59;;;;;;;0.40;0.40;;;7.20;1.00;;;;;;4905603;29;20981;-81
2021/12/04 10:01:51;;;;;;;0.50;0.50;;;7.20;1.00;;;;;;4896776;29;20668;-84
2021/12/04 10:13:21;;;;;;;0.67;0.43;;;7.40;1.00;;;;;;4907124;29;20509;-82
2021/12/04 10:21:46;;;;;;;0.43;0.43;;;7.50;1.00;;;;;;4897717;29;20477;-82
2021/12/04 10:33:14;;;;;;;0.50;0.50;;;7.60;1.00;;;;;;4906600;29;20465;-82
2021/12/04 10:35:43;;;;;;;0.53;0.53;;;7.60;1.00;;;;;;4904347;29;20482;-83
2021/12/04 10:38:18;;;;;;;1.80;0.50;;;7.60;1.00;;;;;;4906609;29;20456;-83
2021/12/04 10:40:50;;;;;;;0.67;0.50;;;7.40;1.00;;;;;;4908720;29;20489;-83
2021/12/04 10:43:21;;;;;;;0.50;0.50;;;7.50;1.00;;;;;;4895096;29;20469;-85
2021/12/04 10:45:54;;;;;;;0.60;0.50;;;7.50;7.00;;;;;;4912872;29;20674;-81
2021/12/04 10:48:26;;;;;;;0.50;0.50;;;7.50;10.50;;;;;;4911852;29;20457;-81
2021/12/04 10:51:02;;;;;;;0.40;0.40;;;7.70;8.10;;;;;;4915393;29;20554;-82
2021/12/04 10:53:34;;;;;;;0.40;0.40;;;7.70;8.80;;;;;;4916668;29;20548;-82
2021/12/04 10:56:22;;;;;;;0.70;0.60;;;7.70;13.90;;;;;;4911615;29;20477;-82
2021/12/04 10:59:11;;;;;;;0.70;0.60;;;7.80;10.50;;;;;;4912778;29;21040;-81
2021/12/04 11:01:49;;;;;;;0.67;0.63;;;7.90;6.90;;;;;;4905276;29;20465;-82
2021/12/04 11:04:27;;;;;;;0.60;0.60;;;8.00;5.40;;;;;;4911836;29;20907;-81
2021/12/04 11:38:13;;;;;;;0.57;0.57;;;8.20;1.00;;;;;;5096216;28;21021;-83
2021/12/04 11:41:15;;;;;;;0.80;0.47;;;8.00;1.00;;;;;;5086781;28;21120;-79
2021/12/04 11:43:54;;;;;;;0.80;0.50;;;8.00;5.40;;;;;;5088768;28;20853;-80
2021/12/04 11:46:40;;;;;;;0.50;0.50;;;8.10;2.00;;;;;;5070686;28;20467;-80
2021/12/04 11:49:15;;;;;;;1.60;0.60;;;8.30;1.00;;;;;;5084429;28;20235;-81
2021/12/04 11:51:55;;;;;;;0.40;0.40;;;8.20;1.00;;;;;;5089198;28;20460;-78
2021/12/04 11:54:25;;;;;;;0.70;0.70;;;8.30;1.00;;;;;;5086587;28;20462;-81
2021/12/04 11:57:02;;;;;;;0.50;0.50;;;8.30;1.00;;;;;;5077011;28;20465;-79
2021/12/04 11:59:32;;;;;;;1.37;0.60;;;8.30;1.00;;;;;;5074157;28;20477;-80
2021/12/04 12:02:08;;;;;;;0.50;0.50;;;8.40;1.00;;;;;;5082220;28;20446;-79
2021/12/04 12:04:39;;;;;;;0.50;0.50;;;8.30;1.00;;;;;;5077496;28;20537;-83
2021/12/04 12:07:14;;;;;;;0.47;0.47;;;8.30;1.00;;;;;;5083177;28;20508;-80
2021/12/04 12:09:44;;;;;;;0.50;0.50;;;8.20;3.80;;;;;;5090041;28;20478;-85
2021/12/04 12:12:15;;;;;;;0.40;0.40;;;8.40;5.70;;;;;;5088507;28;20526;-80
2021/12/04 12:14:48;;;;;;;0.60;0.53;;;8.30;5.50;;;;;;5085300;28;20457;-80
2021/12/04 12:17:30;;;;;;;0.50;0.50;;;8.40;5.70;;;;;;5078067;28;20462;-83
2021/12/04 12:19:59;;;;;;;0.50;0.50;;;8.40;8.50;;;;;;5078330;28;21186;-82
2021/12/04 12:22:36;;;;;;;0.60;0.60;;;8.40;8.50;;;;;;5074269;28;20449;-82
2021/12/04 12:25:24;;;;;;;1.33;0.50;;;8.40;12.10;;;;;;5081165;28;20459;-79
2021/12/04 12:31:46;;;;;;;1.10;0.68;;;8.30;19.30;;;;;;5073907;28;21237;-82
2021/12/04 12:33:42;;;;;;;0.60;0.60;;;8.60;5.90;;;;;;5073176;28;20453;-83
2021/12/04 12:36:13;;;;;;;0.40;0.40;;;8.50;15.90;;;;;;5068082;28;20871;-78
2021/12/04 12:38:50;;;;;;;0.50;0.50;;;8.50;16.90;;;;;;5068844;28;20812;-80
2021/12/04 12:41:26;;;;;;;0.43;0.43;;;8.60;16.10;;;;;;5068524;28;20447;-81
2021/12/04 12:44:05;;;;;;;0.43;0.43;;;8.50;20.80;;;;;;5062420;28;20969;-81
2021/12/04 12:46:39;;;;;;;0.50;0.50;;;8.70;19.90;;;;;;5057673;28;20447;-81
2021/12/04 12:49:19;;;;;;;1.30;0.70;;;8.70;14.60;;;;;;5059606;28;20494;-80
2021/12/04 12:51:55;;;;;;;1.07;0.60;;;8.60;19.30;;;;;;5055220;28;20468;-81
2021/12/04 12:54:27;;;;;;;0.40;0.40;;;8.40;20.80;;;;;;5064761;28;20450;-81
2021/12/04 12:57:02;;;;;;;0.40;0.40;;;8.40;24.60;;;;;;5058946;28;20466;-79
2021/12/04 12:59:40;;;;;;;0.63;0.60;;;8.40;23.70;;;;;;5061000;28;20875;-81
2021/12/04 13:13:25;;;;;;;0.47;0.40;;;8.50;13.70;;;;;;5061400;28;20467;-81
2021/12/04 13:16:00;;;;;;;0.40;0.40;;;8.50;12.70;;;;;;5053513;28;20459;-82
2021/12/04 13:18:30;;;;;;;0.50;0.50;;;8.50;16.30;;;;;;5058274;28;20461;-82
2021/12/04 13:21:04;;;;;;;1.33;0.53;;;8.50;17.30;;;;;;5063180;28;20471;-82
2021/12/04 13:23:33;;;;;;;0.80;0.50;;;8.50;16.00;;;;;;5056200;28;20897;-81
2021/12/04 13:26:05;;;;;;;3.50;1.27;;;8.50;13.50;;;;;;5063350;28;20208;-83
2021/12/04 13:28:36;;;;;;;1.10;0.70;;;8.70;16.10;;;;;;5061944;28;20566;-82
2021/12/04 13:31:05;;;;;;;1.77;0.60;;;8.80;5.80;;;;;;5057510;28;20472;-84
2021/12/04 13:33:37;;;;;;;0.53;0.53;;;8.90;1.00;;;;;;5058690;28;20886;-82
2021/12/04 13:36:13;;;;;;;1.90;0.70;;;8.70;5.70;;;;;;5058726;28;20455;-82
2021/12/04 13:38:41;;;;;;;0.50;0.50;;;8.70;9.80;;;;;;5060220;28;20204;-82
2021/12/04 13:41:10;;;;;;;0.50;0.50;;;8.80;2.50;;;;;;5053514;28;20487;-84
2021/12/04 13:43:39;;;;;;;0.70;0.60;;;8.90;1.00;;;;;;5056459;28;20535;-86
2021/12/04 13:46:08;;;;;;;0.70;0.70;;;9.00;1.50;;;;;;5059340;28;20599;-85
2021/12/04 13:48:36;;;;;;;0.57;0.57;;;9.00;1.00;;;;;;5057552;28;20479;-82
2021/12/04 13:51:06;;;;;;;0.73;0.60;;;9.00;1.00;;;;;;5056369;28;20455;-83
2021/12/04 13:53:37;;;;;;;0.87;0.50;;;9.00;1.00;;;;;;5068915;28;21429;-82
2021/12/04 13:56:08;;;;;;;0.50;0.50;;;8.90;4.20;;;;;;5058161;28;20462;-82
2021/12/04 13:58:45;;;;;;;0.63;0.60;;;8.80;11.90;;;;;;5063987;28;20469;-85
2021/12/04 14:01:14;;;;;;;0.67;0.67;;;8.90;9.60;;;;;;5055579;28;20455;-83
2021/12/04 14:03:44;;;;;;;0.63;0.43;;;8.90;1.00;;;;;;5070716;28;20456;-81
2021/12/04 14:06:16;;;;;;;0.60;0.50;;;8.80;10.00;;;;;;5052470;28;20876;-81
2021/12/04 14:08:55;;;;;;;0.67;0.67;;;8.60;21.40;;;;;;5051371;28;20964;-84
2021/12/04 14:11:29;;;;;;;1.50;0.60;;;8.40;31.30;;;;;;5061658;28;20460;-85
2021/12/04 14:13:57;;;;;;;1.60;0.50;;;8.60;27.90;;;;;;5053926;28;20617;-84
2021/12/04 14:16:27;;;;;;;1.00;0.80;;;8.50;30.50;;;;;;5056087;28;20464;-83
2021/12/04 14:18:55;;;;;;;0.60;0.60;;;8.70;21.60;;;;;;5057352;28;20451;-84
2021/12/04 14:21:25;;;;;;;1.30;0.70;;;8.80;16.30;;;;;;5058495;28;20467;-82
2021/12/04 14:23:53;;;;;;;0.70;0.60;;;8.60;22.10;;;;;;5054083;28;20460;-83
2021/12/04 14:26:21;;;;;;;0.60;0.60;;;8.50;30.70;;;;;;5057575;28;20702;-85
2021/12/04 14:29:04;;;;;;;0.63;0.63;;;8.70;24.10;;;;;;5055764;28;20842;-81
2021/12/04 14:31:32;;;;;;;0.70;0.60;;;8.60;27.70;;;;;;5054191;28;20465;-86
2021/12/04 14:34:00;;;;;;;0.60;0.60;;;8.60;28.10;;;;;;5055921;28;20459;-83
2021/12/04 14:36:30;;;;;;;1.93;0.63;;;9.00;19.50;;;;;;5064768;28;20451;-82
2021/12/04 14:39:02;;;;;;;0.63;0.60;;;8.60;26.00;;;;;;5066836;28;20865;-85
2021/12/04 14:41:31;;;;;;;0.53;0.50;;;8.60;26.00;;;;;;5058180;28;20553;-86
2021/12/04 14:43:59;;;;;;;0.67;0.67;;;8.60;26.00;;;;;;5051145;28;20535;-85
2021/12/04 14:46:29;;;;;;;0.60;0.60;;;8.40;30.90;;;;;;5058001;28;20523;-81
2021/12/04 14:49:02;;;;;;;0.60;0.60;;;8.50;41.40;;;;;;5064156;28;20478;-84
2021/12/04 14:51:31;;;;;;;0.77;0.70;;;8.50;36.80;;;;;;5056242;28;20469;-83
2021/12/04 14:54:00;;;;;;;0.60;0.60;;;8.50;32.50;;;;;;5052635;28;20982;-83
2021/12/04 14:56:32;;;;;;;0.90;0.60;;;8.50;29.30;;;;;;5055823;28;21151;-83
2021/12/04 14:59:01;;;;;;;1.43;0.90;;;8.50;27.80;;;;;;5056756;28;20481;-81
2021/12/04 15:01:34;;;;;;;1.30;1.00;;;8.40;36.60;;;;;;5058841;28;20465;-83
2021/12/04 15:04:04;;;;;;;1.37;0.80;;;8.50;27.60;;;;;;5060516;28;20461;-81
2021/12/04 15:06:36;;;;;;;1.27;0.70;;;8.50;31.40;;;;;;5047538;28;20773;-82
2021/12/04 15:09:10;;;;;;;0.60;0.50;;;8.60;27.70;;;;;;5053187;28;20472;-82
2021/12/04 15:11:40;;;;;;;0.90;0.60;;;8.60;26.00;;;;;;5059182;28;20513;-85
2021/12/04 15:14:12;;;;;;;1.03;0.70;;;8.50;26.40;;;;;;5062309;28;20451;-85
2021/12/04 15:16:46;;;;;;;1.00;0.70;;;8.60;22.00;;;;;;5061653;28;20464;-84
2021/12/04 15:19:19;;;;;;;1.57;0.60;;;8.50;25.90;;;;;;5062054;28;20487;-86
2021/12/04 15:21:52;;;;;;;0.50;0.50;;;8.60;23.50;;;;;;5049240;28;20454;-82
2021/12/04 15:24:24;;;;;;;0.50;0.50;;;8.60;14.40;;;;;;5063318;28;21477;-84
2021/12/04 15:26:55;;;;;;;0.50;0.50;;;8.60;16.60;;;;;;5058770;28;20452;-83
2021/12/04 15:29:26;;;;;;;0.50;0.50;;;8.60;17.70;;;;;;5069779;28;20489;-83
2021/12/04 15:31:58;;;;;;;0.70;0.70;;;8.40;24.20;;;;;;5050546;28;20517;-83
2021/12/04 15:34:34;;;;;;;0.50;0.50;;;8.40;26.50;;;;;;5051928;28;20202;-84
2021/12/04 15:37:05;;;;;;;1.00;0.60;;;8.50;23.20;;;;;;5051575;28;20448;-84
2021/12/04 15:39:37;;;;;;;0.40;0.40;;;8.60;19.60;;;;;;5051340;28;20636;-81
2021/12/04 15:42:23;;;;;;;0.70;0.60;;;8.60;5.50;;;;;;5053477;28;20452;-83
2021/12/04 15:47:50;;;;;;;0.70;0.60;;;8.70;1.00;;;;;;5040764;28;20471;-82